Time;durP1;ratioP1;P1;durP2;ratioP2;P2;SDS_P1;SDS_P2;PMS_P1;PMS_P2;Temp;Humidity;BMP_temperature;BMP_pressure;BME280_temperature;BME280_humidity;BME280_pressure;Samples;Min_cycle;Max_cycle;Signal;HPM_P1;HPM_P2
2022/05/21 00:00:37;;;;;;;;;;;;;;;;;;2574061;23;19983;-78
2022/05/21 00:01:37;;;;;;;;;;;;;;;;;;2570184;23;19999;-78
2022/05/21 00:02:38;;;;;;;;;;;;;;;;;;2574523;23;19903;-78
2022/05/21 00:03:39;;;;;;;;;;;;;;;;;;2587303;23;19918;-78
2022/05/21 00:04:41;;;;;;;;;;;;;;;;;;2583439;23;20303;-77
2022/05/21 00:05:42;;;;;;;;;;;;;;;;;;2583367;23;19946;-78
2022/05/21 00:06:42;;;;;;;;;;;;;;;;;;2587382;23;19922;-77
2022/05/21 00:07:43;;;;;;;;;;;;;;;;;;2587396;23;19915;-77
2022/05/21 00:08:43;;;;;;;;;;;;;;;;;;2585825;23;19919;-77
2022/05/21 00:09:44;;;;;;;;;;;;;;;;;;2582579;23;20012;-77
2022/05/21 00:10:44;;;;;;;;;;;;;;;;;;2586711;23;19918;-77
2022/05/21 00:11:44;;;;;;;;;;;;;;;;;;2587296;23;19961;-79
2022/05/21 00:12:45;;;;;;;;;;;;;;;;;;2587407;23;19970;-76
2022/05/21 00:13:47;;;;;;;;;;;;;;;;;;2587327;23;20242;-79
2022/05/21 00:14:47;;;;;;;;;;;;;;;;;;2583245;23;19903;-76
2022/05/21 00:15:47;;;;;;;;;;;;;;;;;;2587352;23;19903;-77
2022/05/21 00:16:48;;;;;;;;;;;;;;;;;;2582504;23;19904;-77
2022/05/21 00:17:49;;;;;;;;;;;;;;;;;;2586857;23;19903;-79
2022/05/21 00:18:49;;;;;;;;;;;;;;;;;;2587402;23;19914;-77
2022/05/21 00:19:52;;;;;;;;;;;;;;;;;;2587373;23;19994;-79
2022/05/21 00:20:52;;;;;;;;;;;;;;;;;;2587213;23;19915;-77
2022/05/21 00:21:53;;;;;;;;;;;;;;;;;;2587455;23;19911;-79
2022/05/21 00:22:53;;;;;;;;;;;;;;;;;;2582491;23;19974;-79
2022/05/21 00:23:53;;;;;;;;;;;;;;;;;;2586782;23;20266;-79
2022/05/21 00:24:54;;;;;;;;;;;;;;;;;;2587302;23;19903;-78
2022/05/21 00:26:05;;;;;;;;;;;;;;;;;;2569802;23;19938;-77
2022/05/21 00:27:07;;;;;;;;;;;;;;;;;;2564053;23;19942;-78
2022/05/21 00:28:07;;;;;;;;;;;;;;;;;;2574781;23;19915;-79
2022/05/21 00:29:07;;;;;;;;;;;;;;;;;;2574759;23;19931;-78
2022/05/21 00:30:08;;;;;;;;;;;;;;;;;;2574775;23;20104;-78
2022/05/21 00:31:09;;;;;;;;;;;;;;;;;;2570115;23;19919;-77
2022/05/21 00:32:10;;;;;;;;;;;;;;;;;;2574203;23;19910;-79
2022/05/21 00:33:10;;;;;;;;;;;;;;;;;;2574810;23;19903;-77
2022/05/21 00:34:10;;;;;;;;;;;;;;;;;;2574864;23;19907;-76
2022/05/21 00:35:10;;;;;;;;;;;;;;;;;;2574752;23;19907;-80
2022/05/21 00:36:11;;;;;;;;;;;;;;;;;;2570786;23;20223;-77
2022/05/21 00:37:12;;;;;;;;;;;;;;;;;;2570827;23;19987;-78
2022/05/21 00:38:12;;;;;;;;;;;;;;;;;;2574794;23;19904;-78
2022/05/21 00:39:13;;;;;;;;;;;;;;;;;;2574741;23;19904;-78
2022/05/21 00:40:13;;;;;;;;;;;;;;;;;;2574775;23;19939;-78
2022/05/21 00:41:15;;;;;;;;;;;;;;;;;;2557406;23;20015;-77
2022/05/21 00:42:16;;;;;;;;;;;;;;;;;;2562162;23;19928;-77
2022/05/21 00:43:54;;;;;;;;;;;;;;;;;;2574731;23;19903;-77
2022/05/21 00:44:54;;;;;;;;;;;;;;;;;;2496693;23;20301;-79
2022/05/21 00:45:55;;;;;;;;;;;;;;;;;;2500687;23;19906;-79
2022/05/21 00:46:55;;;;;;;;;;;;;;;;;;2512428;23;20255;-79
2022/05/21 00:47:56;;;;;;;;;;;;;;;;;;2512569;23;20069;-79
2022/05/21 00:49:16;;;;;;;;;;;;;;;;;;2512566;23;19905;-79
2022/05/21 00:50:18;;;;;;;;;;;;;;;;;;2521336;23;19905;-79
2022/05/21 00:51:21;;;;;;;;;;;;;;;;;;2574058;23;19910;-79
2022/05/21 00:52:24;;;;;;;;;;;;;;;;;;2574661;23;19939;-79
2022/05/21 00:53:25;;;;;;;;;;;;;;;;;;2574718;23;19912;-79
2022/05/21 00:54:29;;;;;;;;;;;;;;;;;;2574677;23;19939;-79
2022/05/21 00:55:32;;;;;;;;;;;;;;;;;;2574832;23;19982;-78
2022/05/21 00:56:33;;;;;;;;;;;;;;;;;;2569964;23;20041;-79
2022/05/21 00:57:40;;;;;;;;;;;;;;;;;;2574244;23;19932;-79
2022/05/21 01:00:10;;;;;;;;;;;;;;;;;;2575219;23;19904;-79
2022/05/21 01:01:11;;;;;;;;;;;;;;;;;;2559033;23;20335;-79
2022/05/21 01:02:11;;;;;;;;;;;;;;;;;;2545906;23;19940;-79
2022/05/21 01:03:12;;;;;;;;;;;;;;;;;;2559133;23;20215;-79
2022/05/21 01:04:12;;;;;;;;;;;;;;;;;;2575388;23;19994;-79
2022/05/21 01:05:14;;;;;;;;;;;;;;;;;;2558216;23;20319;-79
2022/05/21 01:06:15;;;;;;;;;;;;;;;;;;2562566;23;19908;-79
2022/05/21 01:07:16;;;;;;;;;;;;;;;;;;2575421;23;19908;-79
2022/05/21 01:08:16;;;;;;;;;;;;;;;;;;2575387;23;19904;-79
2022/05/21 01:09:16;;;;;;;;;;;;;;;;;;2575503;23;19903;-79
2022/05/21 01:10:19;;;;;;;;;;;;;;;;;;2575383;23;20291;-79
2022/05/21 01:11:19;;;;;;;;;;;;;;;;;;2575333;23;19991;-79
2022/05/21 01:12:21;;;;;;;;;;;;;;;;;;2575405;23;20237;-79
2022/05/21 01:13:23;;;;;;;;;;;;;;;;;;2575298;23;19911;-79
2022/05/21 01:14:23;;;;;;;;;;;;;;;;;;2571446;23;19903;-79
2022/05/21 01:15:29;;;;;;;;;;;;;;;;;;2575398;23;19942;-79
2022/05/21 01:16:31;;;;;;;;;;;;;;;;;;2575513;23;19903;-79
2022/05/21 01:17:32;;;;;;;;;;;;;;;;;;2558109;23;20267;-79
2022/05/21 01:18:32;;;;;;;;;;;;;;;;;;2546008;23;19944;-79
2022/05/21 01:19:32;;;;;;;;;;;;;;;;;;2562330;23;19907;-80
2022/05/21 01:20:36;;;;;;;;;;;;;;;;;;2575213;23;19945;-79
2022/05/21 01:21:37;;;;;;;;;;;;;;;;;;2575288;23;19919;-79
2022/05/21 01:22:41;;;;;;;;;;;;;;;;;;2575430;23;19908;-79
2022/05/21 01:23:41;;;;;;;;;;;;;;;;;;2575405;23;19919;-79
2022/05/21 01:24:41;;;;;;;;;;;;;;;;;;2575369;23;20303;-79
2022/05/21 01:25:45;;;;;;;;;;;;;;;;;;2575247;23;19973;-79
2022/05/21 01:26:45;;;;;;;;;;;;;;;;;;2584851;23;19916;-79
2022/05/21 01:27:47;;;;;;;;;;;;;;;;;;2587927;23;19903;-79
2022/05/21 01:28:48;;;;;;;;;;;;;;;;;;2583228;23;19903;-80
2022/05/21 01:29:50;;;;;;;;;;;;;;;;;;2583102;23;19913;-79
2022/05/21 01:30:51;;;;;;;;;;;;;;;;;;2587412;23;19915;-77
2022/05/21 01:31:52;;;;;;;;;;;;;;;;;;2570696;23;20238;-79
2022/05/21 01:32:53;;;;;;;;;;;;;;;;;;2574861;23;19938;-79
2022/05/21 01:33:54;;;;;;;;;;;;;;;;;;2583038;23;19938;-79
2022/05/21 01:34:56;;;;;;;;;;;;;;;;;;2583393;23;19914;-79
2022/05/21 01:36:02;;;;;;;;;;;;;;;;;;2588005;23;19903;-79
2022/05/21 01:37:03;;;;;;;;;;;;;;;;;;2587942;23;19904;-79
2022/05/21 01:38:04;;;;;;;;;;;;;;;;;;2570499;23;20236;-79
2022/05/21 01:39:04;;;;;;;;;;;;;;;;;;2574766;23;19939;-79
2022/05/21 01:40:06;;;;;;;;;;;;;;;;;;2587908;23;19989;-79
2022/05/21 01:41:09;;;;;;;;;;;;;;;;;;2583784;23;19903;-79
2022/05/21 01:42:09;;;;;;;;;;;;;;;;;;2588022;23;19907;-79
2022/05/21 01:44:40;;;;;;;;;;;;;;;;;;2588022;23;19903;-79
2022/05/21 01:45:41;;;;;;;;;;;;;;;;;;2587918;23;19908;-79
2022/05/21 01:46:41;;;;;;;;;;;;;;;;;;2583014;23;20239;-80
2022/05/21 01:47:44;;;;;;;;;;;;;;;;;;2587554;23;19907;-79
2022/05/21 01:48:45;;;;;;;;;;;;;;;;;;2587817;23;19903;-79
2022/05/21 01:49:45;;;;;;;;;;;;;;;;;;2570491;23;20239;-79
2022/05/21 01:50:45;;;;;;;;;;;;;;;;;;2574612;23;19931;-79
2022/05/21 01:51:48;;;;;;;;;;;;;;;;;;2583002;23;19908;-79
2022/05/21 01:52:48;;;;;;;;;;;;;;;;;;2587304;23;20325;-79
2022/05/21 01:53:51;;;;;;;;;;;;;;;;;;2587893;23;19904;-80
2022/05/21 01:54:51;;;;;;;;;;;;;;;;;;2587853;23;19930;-79
2022/05/21 01:55:52;;;;;;;;;;;;;;;;;;2583020;23;19937;-79
2022/05/21 01:56:53;;;;;;;;;;;;;;;;;;2583057;23;20018;-79
2022/05/21 01:57:53;;;;;;;;;;;;;;;;;;2570453;23;19903;-79
2022/05/21 01:58:53;;;;;;;;;;;;;;;;;;2572515;23;19986;-79
2022/05/21 01:59:54;;;;;;;;;;;;;;;;;;2587921;23;19935;-79
2022/05/21 02:00:54;;;;;;;;;;;;;;;;;;2587868;23;19935;-79
2022/05/21 02:01:55;;;;;;;;;;;;;;;;;;2587823;23;19903;-79
2022/05/21 02:02:56;;;;;;;;;;;;;;;;;;2587770;23;19982;-79
2022/05/21 02:03:56;;;;;;;;;;;;;;;;;;2588010;23;19935;-79
2022/05/21 02:04:56;;;;;;;;;;;;;;;;;;2587771;23;19908;-79
2022/05/21 02:05:57;;;;;;;;;;;;;;;;;;2587777;23;20316;-79
2022/05/21 02:06:57;;;;;;;;;;;;;;;;;;2582878;23;19986;-79
2022/05/21 02:07:57;;;;;;;;;;;;;;;;;;2587299;23;19970;-78
2022/05/21 02:08:57;;;;;;;;;;;;;;;;;;2587907;23;19978;-79
2022/05/21 02:09:58;;;;;;;;;;;;;;;;;;2587890;23;19903;-80
2022/05/21 02:10:58;;;;;;;;;;;;;;;;;;2587745;23;19914;-79
2022/05/21 02:11:58;;;;;;;;;;;;;;;;;;2587517;23;19911;-79
2022/05/21 02:12:59;;;;;;;;;;;;;;;;;;2570403;23;20303;-79
2022/05/21 02:13:59;;;;;;;;;;;;;;;;;;2570247;23;19903;-79
2022/05/21 02:14:59;;;;;;;;;;;;;;;;;;2587265;23;19931;-80
2022/05/21 02:16:00;;;;;;;;;;;;;;;;;;2587880;23;19935;-79
2022/05/21 02:17:00;;;;;;;;;;;;;;;;;;2570437;23;19912;-79
2022/05/21 02:18:01;;;;;;;;;;;;;;;;;;2574712;23;19935;-80
2022/05/21 02:19:02;;;;;;;;;;;;;;;;;;2587931;23;19907;-79
2022/05/21 02:20:03;;;;;;;;;;;;;;;;;;2583700;23;20364;-79
2022/05/21 02:21:03;;;;;;;;;;;;;;;;;;2582698;23;20006;-80
2022/05/21 02:22:04;;;;;;;;;;;;;;;;;;2583363;23;19903;-80
2022/05/21 02:23:04;;;;;;;;;;;;;;;;;;2587708;23;20312;-80
2022/05/21 02:24:05;;;;;;;;;;;;;;;;;;2587717;23;20310;-80
2022/05/21 02:25:06;;;;;;;;;;;;;;;;;;2587699;23;19982;-80
2022/05/21 02:26:07;;;;;;;;;;;;;;;;;;2587443;23;19913;-79
2022/05/21 02:27:10;;;;;;;;;;;;;;;;;;2587804;23;20223;-79
2022/05/21 02:28:12;;;;;;;;;;;;;;;;;;2587735;23;19918;-79
2022/05/21 02:29:13;;;;;;;;;;;;;;;;;;2587777;23;19915;-79
2022/05/21 02:30:13;;;;;;;;;;;;;;;;;;2587669;23;20006;-79
2022/05/21 02:31:14;;;;;;;;;;;;;;;;;;2587594;23;19957;-80
2022/05/21 02:32:14;;;;;;;;;;;;;;;;;;2587651;23;19907;-79
2022/05/21 02:33:15;;;;;;;;;;;;;;;;;;2587610;23;19962;-79
2022/05/21 02:34:17;;;;;;;;;;;;;;;;;;2587721;23;19903;-79
2022/05/21 02:35:17;;;;;;;;;;;;;;;;;;2587702;23;19910;-79
2022/05/21 02:39:25;;;;;;;;;;;;;;;;;;2587798;23;20278;-79
2022/05/21 02:40:16;;;;;;;;;;;;;;;;;;2587825;23;19935;-79
2022/05/21 02:41:16;;;;;;;;;;;;;;;;;;2570092;23;19904;-79
2022/05/21 02:43:35;;;;;;;;;;;;;;;;;;2578451;23;19903;-80
2022/05/21 02:44:35;;;;;;;;;;;;;;;;;;2570273;23;19904;-79
2022/05/21 02:45:36;;;;;;;;;;;;;;;;;;2574429;23;19998;-79
2022/05/21 02:46:36;;;;;;;;;;;;;;;;;;2570195;23;19903;-79
2022/05/21 02:47:36;;;;;;;;;;;;;;;;;;2570205;23;19908;-79
2022/05/21 02:48:39;;;;;;;;;;;;;;;;;;2587097;23;20235;-77
2022/05/21 02:49:39;;;;;;;;;;;;;;;;;;2587525;23;19907;-79
2022/05/21 02:50:40;;;;;;;;;;;;;;;;;;2570111;23;19903;-79
2022/05/21 02:51:41;;;;;;;;;;;;;;;;;;2570215;23;19946;-79
2022/05/21 02:52:41;;;;;;;;;;;;;;;;;;2569738;23;19918;-79
2022/05/21 02:53:41;;;;;;;;;;;;;;;;;;2573070;23;19943;-79
2022/05/21 02:54:41;;;;;;;;;;;;;;;;;;2587541;23;19973;-78
2022/05/21 02:55:42;;;;;;;;;;;;;;;;;;2587635;23;20230;-79
2022/05/21 02:56:47;;;;;;;;;;;;;;;;;;2570195;23;19904;-79
2022/05/21 02:57:47;;;;;;;;;;;;;;;;;;2575296;23;19904;-79
2022/05/21 02:58:47;;;;;;;;;;;;;;;;;;2587593;23;19914;-79
2022/05/21 02:59:49;;;;;;;;;;;;;;;;;;2587631;23;19918;-79
2022/05/21 03:00:49;;;;;;;;;;;;;;;;;;2582573;23;19946;-79
2022/05/21 03:01:49;;;;;;;;;;;;;;;;;;2586926;23;19903;-79
2022/05/21 03:02:49;;;;;;;;;;;;;;;;;;2582712;23;20291;-79
2022/05/21 03:03:50;;;;;;;;;;;;;;;;;;2587008;23;19949;-78
2022/05/21 03:04:50;;;;;;;;;;;;;;;;;;2587587;23;20211;-79
2022/05/21 03:05:50;;;;;;;;;;;;;;;;;;2587426;23;19908;-79
2022/05/21 03:06:50;;;;;;;;;;;;;;;;;;2587816;23;19904;-79
2022/05/21 03:07:51;;;;;;;;;;;;;;;;;;2570212;23;19997;-79
2022/05/21 03:10:22;;;;;;;;;;;;;;;;;;2587558;23;19974;-79
2022/05/21 03:11:22;;;;;;;;;;;;;;;;;;2587566;23;19911;-79
2022/05/21 03:12:22;;;;;;;;;;;;;;;;;;2583417;23;19949;-79
2022/05/21 03:13:22;;;;;;;;;;;;;;;;;;2587443;23;19931;-79
2022/05/21 03:14:23;;;;;;;;;;;;;;;;;;2587515;23;19907;-79
2022/05/21 03:15:28;;;;;;;;;;;;;;;;;;2587579;23;19903;-79
2022/05/21 03:16:28;;;;;;;;;;;;;;;;;;2570004;23;19986;-79
2022/05/21 03:17:28;;;;;;;;;;;;;;;;;;2574401;23;19955;-79
2022/05/21 03:18:29;;;;;;;;;;;;;;;;;;2587486;23;19904;-79
2022/05/21 03:19:30;;;;;;;;;;;;;;;;;;2587589;23;19907;-79
2022/05/21 03:20:30;;;;;;;;;;;;;;;;;;2587496;23;19903;-79
2022/05/21 03:21:30;;;;;;;;;;;;;;;;;;2587578;23;20192;-79
2022/05/21 03:22:31;;;;;;;;;;;;;;;;;;2587507;23;19966;-79
2022/05/21 03:23:31;;;;;;;;;;;;;;;;;;2569750;23;19982;-79
2022/05/21 03:24:31;;;;;;;;;;;;;;;;;;2570567;23;20397;-79
2022/05/21 03:25:32;;;;;;;;;;;;;;;;;;2569996;23;19912;-79
2022/05/21 03:26:32;;;;;;;;;;;;;;;;;;2574169;23;19977;-79
2022/05/21 03:27:33;;;;;;;;;;;;;;;;;;2575009;23;19904;-79
2022/05/21 03:28:33;;;;;;;;;;;;;;;;;;2574760;23;19939;-79
2022/05/21 03:29:34;;;;;;;;;;;;;;;;;;2575080;23;20192;-79
2022/05/21 03:30:34;;;;;;;;;;;;;;;;;;2574905;23;19939;-79
2022/05/21 03:31:34;;;;;;;;;;;;;;;;;;2574812;23;19904;-78
2022/05/21 03:32:37;;;;;;;;;;;;;;;;;;2570233;23;19951;-79
2022/05/21 03:33:38;;;;;;;;;;;;;;;;;;2574332;23;20394;-79
2022/05/21 03:34:38;;;;;;;;;;;;;;;;;;2569903;23;19914;-79
2022/05/21 03:35:41;;;;;;;;;;;;;;;;;;2557569;23;20004;-79
2022/05/21 03:36:41;;;;;;;;;;;;;;;;;;2574379;23;19998;-79
2022/05/21 03:37:42;;;;;;;;;;;;;;;;;;2571108;23;19973;-79
2022/05/21 03:38:42;;;;;;;;;;;;;;;;;;2574962;23;19914;-79
2022/05/21 03:39:42;;;;;;;;;;;;;;;;;;2571113;23;19904;-79
2022/05/21 03:40:43;;;;;;;;;;;;;;;;;;2571066;23;20278;-79
2022/05/21 03:41:43;;;;;;;;;;;;;;;;;;2574831;23;19918;-79
2022/05/21 03:42:45;;;;;;;;;;;;;;;;;;2574842;23;19904;-79
2022/05/21 03:43:45;;;;;;;;;;;;;;;;;;2574789;23;19903;-79
2022/05/21 03:44:46;;;;;;;;;;;;;;;;;;2570098;23;19903;-79
2022/05/21 03:45:46;;;;;;;;;;;;;;;;;;2570271;23;19907;-79
2022/05/21 03:46:47;;;;;;;;;;;;;;;;;;2582624;23;19983;-79
2022/05/21 03:47:47;;;;;;;;;;;;;;;;;;2585130;23;19994;-79
2022/05/21 03:48:47;;;;;;;;;;;;;;;;;;2582633;23;19911;-79
2022/05/21 03:49:48;;;;;;;;;;;;;;;;;;2586774;23;19904;-78
2022/05/21 03:50:48;;;;;;;;;;;;;;;;;;2569950;23;20311;-79
2022/05/21 03:51:48;;;;;;;;;;;;;;;;;;2574253;23;19907;-79
2022/05/21 03:52:48;;;;;;;;;;;;;;;;;;2569538;23;19939;-79
2022/05/21 03:53:49;;;;;;;;;;;;;;;;;;2574040;23;20246;-79
2022/05/21 03:54:49;;;;;;;;;;;;;;;;;;2574833;23;20005;-79
2022/05/21 03:55:51;;;;;;;;;;;;;;;;;;2574866;23;20271;-79
2022/05/21 03:56:51;;;;;;;;;;;;;;;;;;2574991;23;19903;-79
2022/05/21 03:57:51;;;;;;;;;;;;;;;;;;2569981;23;20142;-78
2022/05/21 03:58:52;;;;;;;;;;;;;;;;;;2574220;23;19990;-79
2022/05/21 03:59:52;;;;;;;;;;;;;;;;;;2574851;23;20333;-79
2022/05/21 04:00:52;;;;;;;;;;;;;;;;;;2574701;23;19947;-79
2022/05/21 04:01:54;;;;;;;;;;;;;;;;;;2574808;23;19986;-79
2022/05/21 04:02:55;;;;;;;;;;;;;;;;;;2574779;23;20315;-79
2022/05/21 04:03:56;;;;;;;;;;;;;;;;;;2574841;23;19931;-79
2022/05/21 04:04:56;;;;;;;;;;;;;;;;;;2571025;23;19908;-79
2022/05/21 04:05:57;;;;;;;;;;;;;;;;;;2574744;23;19970;-78
2022/05/21 04:06:57;;;;;;;;;;;;;;;;;;2570065;23;19904;-77
2022/05/21 04:07:57;;;;;;;;;;;;;;;;;;2574203;23;19911;-77
2022/05/21 04:08:58;;;;;;;;;;;;;;;;;;2574523;23;19969;-79
2022/05/21 04:09:58;;;;;;;;;;;;;;;;;;2574730;23;19979;-76
2022/05/21 04:10:58;;;;;;;;;;;;;;;;;;2574730;23;20302;-79
2022/05/21 04:11:59;;;;;;;;;;;;;;;;;;2574996;23;19932;-77
2022/05/21 04:13:02;;;;;;;;;;;;;;;;;;2570006;23;19903;-78
2022/05/21 04:14:03;;;;;;;;;;;;;;;;;;2570289;23;19918;-78
2022/05/21 04:15:03;;;;;;;;;;;;;;;;;;2574811;23;19983;-78
2022/05/21 04:16:04;;;;;;;;;;;;;;;;;;2569936;23;20167;-78
2022/05/21 04:17:05;;;;;;;;;;;;;;;;;;2557504;23;19954;-78
2022/05/21 04:18:05;;;;;;;;;;;;;;;;;;2557712;23;19912;-78
2022/05/21 04:19:05;;;;;;;;;;;;;;;;;;2574197;23;19904;-78
2022/05/21 04:20:07;;;;;;;;;;;;;;;;;;2574744;23;19986;-78
2022/05/21 04:21:07;;;;;;;;;;;;;;;;;;2569834;23;19931;-78
2022/05/21 04:22:09;;;;;;;;;;;;;;;;;;2574169;23;19927;-78
2022/05/21 04:23:09;;;;;;;;;;;;;;;;;;2571119;23;19903;-78
2022/05/21 04:24:09;;;;;;;;;;;;;;;;;;2570096;23;20339;-78
2022/05/21 04:25:10;;;;;;;;;;;;;;;;;;2574113;23;19966;-78
2022/05/21 04:26:10;;;;;;;;;;;;;;;;;;2572954;23;19927;-79
2022/05/21 04:27:11;;;;;;;;;;;;;;;;;;2587402;23;20273;-78
2022/05/21 04:28:11;;;;;;;;;;;;;;;;;;2587283;23;19907;-78
2022/05/21 04:29:12;;;;;;;;;;;;;;;;;;2587391;23;19907;-78
2022/05/21 04:30:18;;;;;;;;;;;;;;;;;;2587357;23;19939;-78
2022/05/21 04:31:18;;;;;;;;;;;;;;;;;;2587253;23;19904;-78
2022/05/21 04:32:19;;;;;;;;;;;;;;;;;;2587078;23;20380;-78
2022/05/21 04:33:19;;;;;;;;;;;;;;;;;;2569528;23;19939;-76
2022/05/21 04:34:20;;;;;;;;;;;;;;;;;;2573853;23;19958;-78
2022/05/21 04:35:21;;;;;;;;;;;;;;;;;;2587929;23;19903;-77
2022/05/21 04:36:22;;;;;;;;;;;;;;;;;;2588130;23;19978;-77
2022/05/21 04:37:23;;;;;;;;;;;;;;;;;;2584261;23;19942;-79
2022/05/21 04:38:23;;;;;;;;;;;;;;;;;;2588131;23;19930;-79
2022/05/21 04:39:23;;;;;;;;;;;;;;;;;;2588246;23;19911;-77
2022/05/21 04:40:24;;;;;;;;;;;;;;;;;;2587951;23;19907;-79
2022/05/21 04:41:25;;;;;;;;;;;;;;;;;;2588208;23;20061;-80
2022/05/21 04:42:26;;;;;;;;;;;;;;;;;;2588265;23;20276;-80
2022/05/21 04:43:26;;;;;;;;;;;;;;;;;;2588163;23;19961;-80
2022/05/21 04:44:31;;;;;;;;;;;;;;;;;;2570734;23;20254;-79
2022/05/21 04:45:31;;;;;;;;;;;;;;;;;;2575841;23;19920;-79
2022/05/21 04:46:32;;;;;;;;;;;;;;;;;;2588220;23;20289;-79
2022/05/21 04:47:32;;;;;;;;;;;;;;;;;;2584159;23;19986;-79
2022/05/21 04:48:32;;;;;;;;;;;;;;;;;;2584318;23;19990;-77
2022/05/21 04:49:34;;;;;;;;;;;;;;;;;;2588219;23;20259;-77
2022/05/21 04:50:35;;;;;;;;;;;;;;;;;;2588079;23;20041;-78
2022/05/21 04:51:37;;;;;;;;;;;;;;;;;;2584261;23;19984;-79
2022/05/21 04:52:37;;;;;;;;;;;;;;;;;;2583968;23;20297;-79
2022/05/21 04:53:38;;;;;;;;;;;;;;;;;;2587508;23;19904;-77
2022/05/21 04:54:38;;;;;;;;;;;;;;;;;;2588023;23;19950;-79
2022/05/21 04:55:39;;;;;;;;;;;;;;;;;;2588125;23;19903;-79
2022/05/21 04:56:39;;;;;;;;;;;;;;;;;;2583691;23;19914;-77
2022/05/21 04:57:40;;;;;;;;;;;;;;;;;;2587800;23;19915;-77
2022/05/21 04:58:40;;;;;;;;;;;;;;;;;;2584154;23;20227;-79
2022/05/21 04:59:40;;;;;;;;;;;;;;;;;;2588104;23;19904;-79
2022/05/21 05:00:41;;;;;;;;;;;;;;;;;;2587610;23;19903;-77
2022/05/21 05:01:41;;;;;;;;;;;;;;;;;;2587302;23;20360;-78
2022/05/21 05:02:42;;;;;;;;;;;;;;;;;;2587509;23;19939;-79
2022/05/21 05:03:42;;;;;;;;;;;;;;;;;;2587244;23;20187;-76
2022/05/21 05:04:42;;;;;;;;;;;;;;;;;;2587568;23;19903;-76
2022/05/21 05:05:44;;;;;;;;;;;;;;;;;;2587225;23;20444;-76
2022/05/21 05:06:44;;;;;;;;;;;;;;;;;;2587462;23;20271;-77
2022/05/21 05:07:44;;;;;;;;;;;;;;;;;;2587785;23;19911;-77
2022/05/21 05:08:44;;;;;;;;;;;;;;;;;;2587379;23;19903;-77
2022/05/21 05:09:45;;;;;;;;;;;;;;;;;;2569875;23;19903;-76
2022/05/21 05:10:46;;;;;;;;;;;;;;;;;;2574135;23;19957;-77
2022/05/21 05:11:47;;;;;;;;;;;;;;;;;;2587583;23;19961;-77
2022/05/21 05:12:47;;;;;;;;;;;;;;;;;;2587708;23;19946;-77
2022/05/21 05:13:47;;;;;;;;;;;;;;;;;;2583617;23;19935;-77
2022/05/21 05:14:50;;;;;;;;;;;;;;;;;;2583545;23;20318;-77
2022/05/21 05:15:50;;;;;;;;;;;;;;;;;;2587584;23;19904;-79
2022/05/21 05:16:51;;;;;;;;;;;;;;;;;;2587269;23;20242;-77
2022/05/21 05:17:59;;;;;;;;;;;;;;;;;;2587013;23;19914;-77
2022/05/21 05:18:59;;;;;;;;;;;;;;;;;;2587195;23;19927;-77
2022/05/21 05:20:00;;;;;;;;;;;;;;;;;;2587030;23;19904;-77
2022/05/21 05:21:01;;;;;;;;;;;;;;;;;;2587085;23;19915;-77
2022/05/21 05:22:02;;;;;;;;;;;;;;;;;;2587478;23;19985;-77
2022/05/21 05:23:02;;;;;;;;;;;;;;;;;;2587402;23;19911;-77
2022/05/21 05:24:03;;;;;;;;;;;;;;;;;;2587406;23;19903;-77
2022/05/21 05:25:04;;;;;;;;;;;;;;;;;;2587173;23;19986;-77
2022/05/21 05:26:05;;;;;;;;;;;;;;;;;;2587197;23;19922;-77
2022/05/21 05:27:05;;;;;;;;;;;;;;;;;;2587402;23;19980;-77
2022/05/21 05:28:17;;;;;;;;;;;;;;;;;;2587705;23;19914;-77
2022/05/21 05:29:17;;;;;;;;;;;;;;;;;;2587883;23;19903;-77
2022/05/21 05:30:18;;;;;;;;;;;;;;;;;;2587884;23;20313;-77
2022/05/21 05:31:19;;;;;;;;;;;;;;;;;;2587864;23;19911;-77
2022/05/21 05:32:19;;;;;;;;;;;;;;;;;;2588100;23;19904;-77
2022/05/21 05:33:20;;;;;;;;;;;;;;;;;;2588019;23;19927;-77
2022/05/21 05:34:20;;;;;;;;;;;;;;;;;;2587946;23;19934;-77
2022/05/21 05:35:21;;;;;;;;;;;;;;;;;;2587976;23;19911;-77
2022/05/21 05:36:22;;;;;;;;;;;;;;;;;;2570493;23;19904;-77
2022/05/21 05:37:22;;;;;;;;;;;;;;;;;;2570634;23;19935;-77
2022/05/21 05:38:23;;;;;;;;;;;;;;;;;;2570647;23;19919;-77
2022/05/21 05:39:23;;;;;;;;;;;;;;;;;;2558069;23;19991;-77
2022/05/21 05:40:24;;;;;;;;;;;;;;;;;;2557988;23;19903;-77
2022/05/21 05:41:25;;;;;;;;;;;;;;;;;;2574871;23;19904;-77
2022/05/21 05:42:25;;;;;;;;;;;;;;;;;;2574867;23;19903;-77
2022/05/21 05:43:25;;;;;;;;;;;;;;;;;;2574823;23;20290;-77
2022/05/21 05:44:25;;;;;;;;;;;;;;;;;;2587838;23;19974;-77
2022/05/21 05:45:26;;;;;;;;;;;;;;;;;;2587818;23;20317;-77
2022/05/21 05:46:26;;;;;;;;;;;;;;;;;;2587354;23;19907;-77
2022/05/21 05:47:27;;;;;;;;;;;;;;;;;;2587932;23;19903;-77
2022/05/21 05:48:28;;;;;;;;;;;;;;;;;;2584022;23;19927;-77
2022/05/21 05:49:28;;;;;;;;;;;;;;;;;;2587924;23;19903;-77
2022/05/21 05:50:29;;;;;;;;;;;;;;;;;;2587776;23;19904;-77
2022/05/21 05:51:29;;;;;;;;;;;;;;;;;;2587900;23;19922;-77
2022/05/21 05:52:29;;;;;;;;;;;;;;;;;;2587678;23;20002;-77
2022/05/21 05:53:30;;;;;;;;;;;;;;;;;;2587216;23;20306;-78
2022/05/21 05:54:32;;;;;;;;;;;;;;;;;;2583929;23;20329;-77
2022/05/21 05:55:32;;;;;;;;;;;;;;;;;;2587808;23;19990;-77
2022/05/21 05:56:35;;;;;;;;;;;;;;;;;;2588056;23;19903;-77
2022/05/21 05:57:36;;;;;;;;;;;;;;;;;;2588013;23;19931;-77
2022/05/21 05:59:55;;;;;;;;;;;;;;;;;;2587870;23;19911;-77
2022/05/21 06:00:55;;;;;;;;;;;;;;;;;;2587848;23;19953;-77
2022/05/21 06:03:14;;;;;;;;;;;;;;;;;;2587876;23;19903;-77
2022/05/21 06:04:15;;;;;;;;;;;;;;;;;;2570478;23;19904;-77
2022/05/21 06:05:16;;;;;;;;;;;;;;;;;;2574625;23;19975;-77
2022/05/21 06:06:17;;;;;;;;;;;;;;;;;;2588024;23;20363;-77
2022/05/21 06:07:17;;;;;;;;;;;;;;;;;;2570426;23;20160;-77
2022/05/21 06:08:17;;;;;;;;;;;;;;;;;;2570871;23;19929;-77
2022/05/21 06:09:17;;;;;;;;;;;;;;;;;;2587338;23;19934;-80
2022/05/21 06:10:19;;;;;;;;;;;;;;;;;;2587260;23;20306;-78
2022/05/21 06:11:20;;;;;;;;;;;;;;;;;;2583028;23;20295;-77
2022/05/21 06:12:20;;;;;;;;;;;;;;;;;;2587237;23;19961;-76
2022/05/21 06:13:20;;;;;;;;;;;;;;;;;;2586841;23;20545;-77
2022/05/21 06:14:20;;;;;;;;;;;;;;;;;;2586808;23;19907;-77
2022/05/21 06:15:21;;;;;;;;;;;;;;;;;;2586828;23;19974;-77
2022/05/21 06:16:21;;;;;;;;;;;;;;;;;;2569543;23;19942;-77
2022/05/21 06:17:22;;;;;;;;;;;;;;;;;;2574161;23;20492;-77
2022/05/21 06:18:22;;;;;;;;;;;;;;;;;;2586932;23;19907;-78
2022/05/21 06:19:23;;;;;;;;;;;;;;;;;;2587230;23;20337;-78
2022/05/21 06:20:24;;;;;;;;;;;;;;;;;;2586969;23;19905;-78
2022/05/21 06:21:25;;;;;;;;;;;;;;;;;;2586645;23;20369;-74
2022/05/21 06:22:25;;;;;;;;;;;;;;;;;;2586855;23;19903;-76
2022/05/21 06:23:28;;;;;;;;;;;;;;;;;;2586849;23;19936;-77
2022/05/21 06:24:29;;;;;;;;;;;;;;;;;;2586965;23;19903;-76
2022/05/21 06:25:33;;;;;;;;;;;;;;;;;;2587575;23;19907;-77
2022/05/21 06:26:33;;;;;;;;;;;;;;;;;;2587689;23;19966;-77
2022/05/21 06:27:33;;;;;;;;;;;;;;;;;;2587827;23;19971;-77
2022/05/21 06:28:34;;;;;;;;;;;;;;;;;;2583348;23;19938;-75
2022/05/21 06:29:37;;;;;;;;;;;;;;;;;;2587343;23;20230;-77
2022/05/21 06:30:38;;;;;;;;;;;;;;;;;;2586655;23;19911;-77
2022/05/21 06:31:39;;;;;;;;;;;;;;;;;;2587871;23;19908;-76
2022/05/21 06:32:39;;;;;;;;;;;;;;;;;;2587151;23;19941;-76
2022/05/21 06:33:39;;;;;;;;;;;;;;;;;;2586963;23;19942;-77
2022/05/21 06:34:40;;;;;;;;;;;;;;;;;;2586777;23;19914;-77
2022/05/21 06:35:40;;;;;;;;;;;;;;;;;;2587409;23;20327;-77
2022/05/21 06:36:41;;;;;;;;;;;;;;;;;;2583975;23;19903;-76
2022/05/21 06:37:41;;;;;;;;;;;;;;;;;;2587241;23;19949;-78
2022/05/21 06:38:42;;;;;;;;;;;;;;;;;;2587499;23;19970;-77
2022/05/21 06:39:42;;;;;;;;;;;;;;;;;;2587374;23;19911;-77
2022/05/21 06:40:43;;;;;;;;;;;;;;;;;;2587322;23;20246;-77
2022/05/21 06:41:43;;;;;;;;;;;;;;;;;;2583591;23;19911;-76
2022/05/21 06:42:43;;;;;;;;;;;;;;;;;;2570241;23;19975;-76
2022/05/21 06:43:44;;;;;;;;;;;;;;;;;;2557452;23;19987;-76
2022/05/21 06:44:44;;;;;;;;;;;;;;;;;;2574393;23;19915;-80
2022/05/21 06:45:44;;;;;;;;;;;;;;;;;;2569991;23;19958;-77
2022/05/21 06:46:44;;;;;;;;;;;;;;;;;;2574335;23;19908;-78
2022/05/21 06:47:45;;;;;;;;;;;;;;;;;;2587481;23;19915;-78
2022/05/21 06:48:45;;;;;;;;;;;;;;;;;;2587500;23;19904;-76
2022/05/21 06:49:45;;;;;;;;;;;;;;;;;;2587500;23;19943;-75
2022/05/21 06:50:46;;;;;;;;;;;;;;;;;;2587366;23;19908;-77
2022/05/21 06:51:47;;;;;;;;;;;;;;;;;;2569955;23;19904;-78
2022/05/21 06:52:47;;;;;;;;;;;;;;;;;;2574445;23;19913;-79
2022/05/21 06:53:48;;;;;;;;;;;;;;;;;;2587637;23;20306;-78
2022/05/21 06:54:48;;;;;;;;;;;;;;;;;;2587340;23;19930;-78
2022/05/21 06:55:48;;;;;;;;;;;;;;;;;;2587227;23;20415;-78
2022/05/21 06:56:49;;;;;;;;;;;;;;;;;;2569504;23;19904;-79
2022/05/21 06:57:49;;;;;;;;;;;;;;;;;;2574333;23;19911;-78
2022/05/21 06:58:51;;;;;;;;;;;;;;;;;;2570711;23;19978;-79
2022/05/21 06:59:52;;;;;;;;;;;;;;;;;;2570851;23;20276;-79
2022/05/21 07:00:52;;;;;;;;;;;;;;;;;;2587605;23;19904;-79
2022/05/21 07:01:52;;;;;;;;;;;;;;;;;;2587582;23;19950;-77
2022/05/21 07:02:53;;;;;;;;;;;;;;;;;;2587687;23;20295;-79
2022/05/21 07:03:56;;;;;;;;;;;;;;;;;;2587661;23;19904;-78
2022/05/21 07:07:35;;;;;;;;;;;;;;;;;;2587794;23;19903;-78
2022/05/21 07:08:36;;;;;;;;;;;;;;;;;;2587697;23;20331;-79
2022/05/21 07:09:36;;;;;;;;;;;;;;;;;;2582699;23;20329;-79
2022/05/21 07:10:36;;;;;;;;;;;;;;;;;;2583064;23;19911;-79